sensor_id;sensor_type;location;lat;lon;timestamp;temperature;humidity
59007;DHT22;44792;52.760;6.726;2023-07-08T00:00:46;18.60;99.90
59007;DHT22;44792;52.760;6.726;2023-07-08T00:03:14;18.70;99.90
59007;DHT22;44792;52.760;6.726;2023-07-08T00:05:40;18.60;99.90
59007;DHT22;44792;52.760;6.726;2023-07-08T00:08:15;18.60;99.90
59007;DHT22;44792;52.760;6.726;2023-07-08T00:10:41;18.50;99.90
59007;DHT22;44792;52.760;6.726;2023-07-08T00:13:08;18.50;99.90
59007;DHT22;44792;52.760;6.726;2023-07-08T00:15:35;18.50;99.90
59007;DHT22;44792;52.760;6.726;2023-07-08T00:18:14;18.40;99.90
59007;DHT22;44792;52.760;6.726;2023-07-08T00:20:46;18.40;99.90
59007;DHT22;44792;52.760;6.726;2023-07-08T00:23:12;18.40;99.90
59007;DHT22;44792;52.760;6.726;2023-07-08T00:25:39;18.30;99.90
59007;DHT22;44792;52.760;6.726;2023-07-08T00:28:15;18.30;99.90
59007;DHT22;44792;52.760;6.726;2023-07-08T00:30:41;18.30;99.90
59007;DHT22;44792;52.760;6.726;2023-07-08T00:33:07;18.20;99.90
59007;DHT22;44792;52.760;6.726;2023-07-08T00:35:36;18.20;99.90
59007;DHT22;44792;52.760;6.726;2023-07-08T00:40:38;18.10;99.90
59007;DHT22;44792;52.760;6.726;2023-07-08T00:43:05;18.20;99.90
59007;DHT22;44792;52.760;6.726;2023-07-08T00:48:06;18.10;99.90
59007;DHT22;44792;52.760;6.726;2023-07-08T00:50:33;18.10;99.90
59007;DHT22;44792;52.760;6.726;2023-07-08T00:53:28;18.10;99.90
59007;DHT22;44792;52.760;6.726;2023-07-08T00:56:02;18.00;99.90
59007;DHT22;44792;52.760;6.726;2023-07-08T01:01:25;17.90;99.90
59007;DHT22;44792;52.760;6.726;2023-07-08T01:04:06;17.90;99.90
59007;DHT22;44792;52.760;6.726;2023-07-08T01:06:36;17.90;99.90
59007;DHT22;44792;52.760;6.726;2023-07-08T01:09:06;17.90;99.90
59007;DHT22;44792;52.760;6.726;2023-07-08T01:11:33;17.80;99.90
59007;DHT22;44792;52.760;6.726;2023-07-08T01:14:01;17.80;99.90
59007;DHT22;44792;52.760;6.726;2023-07-08T01:16:28;17.80;99.90
59007;DHT22;44792;52.760;6.726;2023-07-08T01:18:54;17.70;99.90
59007;DHT22;44792;52.760;6.726;2023-07-08T01:21:34;17.70;99.90
59007;DHT22;44792;52.760;6.726;2023-07-08T01:24:06;17.70;99.90
59007;DHT22;44792;52.760;6.726;2023-07-08T01:26:35;17.60;99.90
59007;DHT22;44792;52.760;6.726;2023-07-08T01:29:03;17.60;99.90
59007;DHT22;44792;52.760;6.726;2023-07-08T01:31:29;17.70;99.90
59007;DHT22;44792;52.760;6.726;2023-07-08T01:33:55;17.60;99.90
59007;DHT22;44792;52.760;6.726;2023-07-08T01:36:21;17.60;99.90
59007;DHT22;44792;52.760;6.726;2023-07-08T01:38:47;17.60;99.90
59007;DHT22;44792;52.760;6.726;2023-07-08T01:41:14;17.60;99.90
59007;DHT22;44792;52.760;6.726;2023-07-08T01:43:40;17.60;99.90
59007;DHT22;44792;52.760;6.726;2023-07-08T01:46:15;17.60;99.90
59007;DHT22;44792;52.760;6.726;2023-07-08T01:48:46;17.60;99.90
59007;DHT22;44792;52.760;6.726;2023-07-08T01:51:13;17.50;99.90
59007;DHT22;44792;52.760;6.726;2023-07-08T01:53:41;17.40;99.90
59007;DHT22;44792;52.760;6.726;2023-07-08T01:56:08;17.40;99.90
59007;DHT22;44792;52.760;6.726;2023-07-08T01:58:34;17.40;99.90
59007;DHT22;44792;52.760;6.726;2023-07-08T02:01:00;17.40;99.90
59007;DHT22;44792;52.760;6.726;2023-07-08T02:03:27;17.40;99.90
59007;DHT22;44792;52.760;6.726;2023-07-08T02:05:53;17.40;99.90
59007;DHT22;44792;52.760;6.726;2023-07-08T02:08:19;17.30;99.90
59007;DHT22;44792;52.760;6.726;2023-07-08T02:10:54;17.30;99.90
59007;DHT22;44792;52.760;6.726;2023-07-08T02:13:20;17.30;99.90
59007;DHT22;44792;52.760;6.726;2023-07-08T02:15:47;17.30;99.90
59007;DHT22;44792;52.760;6.726;2023-07-08T02:18:13;17.20;99.90
59007;DHT22;44792;52.760;6.726;2023-07-08T02:20:38;17.20;99.90
59007;DHT22;44792;52.760;6.726;2023-07-08T02:23:04;17.20;99.90
59007;DHT22;44792;52.760;6.726;2023-07-08T02:25:30;17.20;99.90
59007;DHT22;44792;52.760;6.726;2023-07-08T02:27:56;17.20;99.90
59007;DHT22;44792;52.760;6.726;2023-07-08T02:30:26;17.20;99.90
59007;DHT22;44792;52.760;6.726;2023-07-08T02:32:52;17.20;99.90
59007;DHT22;44792;52.760;6.726;2023-07-08T02:35:29;17.20;99.90
59007;DHT22;44792;52.760;6.726;2023-07-08T02:37:56;17.10;99.90
59007;DHT22;44792;52.760;6.726;2023-07-08T02:40:23;17.10;99.90
59007;DHT22;44792;52.760;6.726;2023-07-08T02:42:49;17.20;99.90
59007;DHT22;44792;52.760;6.726;2023-07-08T02:45:16;17.10;99.90
59007;DHT22;44792;52.760;6.726;2023-07-08T02:47:42;17.20;99.90
59007;DHT22;44792;52.760;6.726;2023-07-08T02:50:09;17.10;99.90
59007;DHT22;44792;52.760;6.726;2023-07-08T02:52:35;17.10;99.90
59007;DHT22;44792;52.760;6.726;2023-07-08T02:55:01;17.10;99.90
59007;DHT22;44792;52.760;6.726;2023-07-08T02:57:26;17.10;99.90
59007;DHT22;44792;52.760;6.726;2023-07-08T02:59:52;17.00;99.90
59007;DHT22;44792;52.760;6.726;2023-07-08T03:02:18;17.00;99.90
59007;DHT22;44792;52.760;6.726;2023-07-08T03:04:43;16.90;99.90
59007;DHT22;44792;52.760;6.726;2023-07-08T03:07:10;16.90;99.90
59007;DHT22;44792;52.760;6.726;2023-07-08T03:09:40;17.00;99.90
59007;DHT22;44792;52.760;6.726;2023-07-08T03:12:08;17.00;99.90
59007;DHT22;44792;52.760;6.726;2023-07-08T03:14:34;16.90;99.90
59007;DHT22;44792;52.760;6.726;2023-07-08T03:16:59;16.90;99.90
59007;DHT22;44792;52.760;6.726;2023-07-08T03:19:25;16.90;99.90
59007;DHT22;44792;52.760;6.726;2023-07-08T03:21:51;16.90;99.90
59007;DHT22;44792;52.760;6.726;2023-07-08T03:24:17;16.90;99.90
59007;DHT22;44792;52.760;6.726;2023-07-08T03:26:44;16.80;99.90
59007;DHT22;44792;52.760;6.726;2023-07-08T03:29:14;16.80;99.90
59007;DHT22;44792;52.760;6.726;2023-07-08T03:31:40;16.80;99.90
59007;DHT22;44792;52.760;6.726;2023-07-08T03:34:09;16.80;99.90
59007;DHT22;44792;52.760;6.726;2023-07-08T03:36:38;16.80;99.90
59007;DHT22;44792;52.760;6.726;2023-07-08T03:39:06;16.80;99.90
59007;DHT22;44792;52.760;6.726;2023-07-08T03:41:31;16.80;99.90
59007;DHT22;44792;52.760;6.726;2023-07-08T03:43:57;16.70;99.90
59007;DHT22;44792;52.760;6.726;2023-07-08T03:46:23;16.70;99.90
59007;DHT22;44792;52.760;6.726;2023-07-08T03:48:49;16.70;99.90
59007;DHT22;44792;52.760;6.726;2023-07-08T03:51:26;16.70;99.90
59007;DHT22;44792;52.760;6.726;2023-07-08T03:53:53;16.70;99.90
59007;DHT22;44792;52.760;6.726;2023-07-08T03:56:19;16.80;99.90
59007;DHT22;44792;52.760;6.726;2023-07-08T03:58:44;16.80;99.90
59007;DHT22;44792;52.760;6.726;2023-07-08T04:01:15;16.80;99.90
59007;DHT22;44792;52.760;6.726;2023-07-08T04:03:42;16.80;99.90
59007;DHT22;44792;52.760;6.726;2023-07-08T04:06:08;16.90;99.90
59007;DHT22;44792;52.760;6.726;2023-07-08T04:08:33;16.90;99.90
59007;DHT22;44792;52.760;6.726;2023-07-08T04:10:59;17.00;99.90
59007;DHT22;44792;52.760;6.726;2023-07-08T04:13:25;17.00;99.90
59007;DHT22;44792;52.760;6.726;2023-07-08T04:15:56;17.10;99.90
59007;DHT22;44792;52.760;6.726;2023-07-08T04:18:21;17.20;99.90
59007;DHT22;44792;52.760;6.726;2023-07-08T04:20:47;17.20;99.90
59007;DHT22;44792;52.760;6.726;2023-07-08T04:23:21;17.30;99.90
59007;DHT22;44792;52.760;6.726;2023-07-08T04:25:53;17.40;99.90
59007;DHT22;44792;52.760;6.726;2023-07-08T04:28:20;17.40;99.90
59007;DHT22;44792;52.760;6.726;2023-07-08T04:30:47;17.40;99.90
59007;DHT22;44792;52.760;6.726;2023-07-08T04:33:14;17.50;99.90
59007;DHT22;44792;52.760;6.726;2023-07-08T04:35:41;17.60;99.90
59007;DHT22;44792;52.760;6.726;2023-07-08T04:38:19;17.60;99.90
59007;DHT22;44792;52.760;6.726;2023-07-08T04:40:50;17.70;99.90
59007;DHT22;44792;52.760;6.726;2023-07-08T04:43:20;17.70;99.90
59007;DHT22;44792;52.760;6.726;2023-07-08T04:45:48;17.80;99.90
59007;DHT22;44792;52.760;6.726;2023-07-08T04:48:18;17.80;99.90
59007;DHT22;44792;52.760;6.726;2023-07-08T04:50:48;17.90;99.90
59007;DHT22;44792;52.760;6.726;2023-07-08T04:53:14;18.10;99.90
59007;DHT22;44792;52.760;6.726;2023-07-08T04:55:43;18.10;99.90
59007;DHT22;44792;52.760;6.726;2023-07-08T04:58:09;18.30;99.90
59007;DHT22;44792;52.760;6.726;2023-07-08T05:00:35;18.40;99.90
59007;DHT22;44792;52.760;6.726;2023-07-08T05:03:01;18.50;99.90
59007;DHT22;44792;52.760;6.726;2023-07-08T05:05:26;18.60;99.90
59007;DHT22;44792;52.760;6.726;2023-07-08T05:07:52;18.60;99.90
59007;DHT22;44792;52.760;6.726;2023-07-08T05:10:19;18.70;99.90
59007;DHT22;44792;52.760;6.726;2023-07-08T05:12:45;18.90;99.90
59007;DHT22;44792;52.760;6.726;2023-07-08T05:15:12;19.00;99.90
59007;DHT22;44792;52.760;6.726;2023-07-08T05:17:38;19.10;99.90
59007;DHT22;44792;52.760;6.726;2023-07-08T05:20:06;19.10;99.90
59007;DHT22;44792;52.760;6.726;2023-07-08T05:22:33;19.30;99.90
59007;DHT22;44792;52.760;6.726;2023-07-08T05:24:59;19.40;99.90
59007;DHT22;44792;52.760;6.726;2023-07-08T05:27:25;19.40;99.90
59007;DHT22;44792;52.760;6.726;2023-07-08T05:29:51;19.50;99.90
59007;DHT22;44792;52.760;6.726;2023-07-08T05:32:17;19.60;99.90
59007;DHT22;44792;52.760;6.726;2023-07-08T05:34:43;19.70;99.90
59007;DHT22;44792;52.760;6.726;2023-07-08T05:37:10;19.80;99.90
59007;DHT22;44792;52.760;6.726;2023-07-08T05:39:36;19.80;99.90
59007;DHT22;44792;52.760;6.726;2023-07-08T05:42:02;19.90;99.90
59007;DHT22;44792;52.760;6.726;2023-07-08T05:44:27;19.90;99.90
59007;DHT22;44792;52.760;6.726;2023-07-08T05:46:53;20.10;99.90
59007;DHT22;44792;52.760;6.726;2023-07-08T05:49:19;20.10;99.90
59007;DHT22;44792;52.760;6.726;2023-07-08T05:51:47;20.10;99.90
59007;DHT22;44792;52.760;6.726;2023-07-08T05:54:14;20.20;99.90
59007;DHT22;44792;52.760;6.726;2023-07-08T05:56:40;20.30;99.90
59007;DHT22;44792;52.760;6.726;2023-07-08T05:59:06;20.30;99.90
59007;DHT22;44792;52.760;6.726;2023-07-08T06:01:32;20.30;99.90
59007;DHT22;44792;52.760;6.726;2023-07-08T06:03:58;20.30;99.90
59007;DHT22;44792;52.760;6.726;2023-07-08T06:06:25;20.50;99.90
59007;DHT22;44792;52.760;6.726;2023-07-08T06:08:51;20.50;99.90
59007;DHT22;44792;52.760;6.726;2023-07-08T06:11:17;20.50;99.90
59007;DHT22;44792;52.760;6.726;2023-07-08T06:13:44;20.60;99.90
59007;DHT22;44792;52.760;6.726;2023-07-08T06:16:09;20.70;99.90
59007;DHT22;44792;52.760;6.726;2023-07-08T06:18:35;20.70;99.90
59007;DHT22;44792;52.760;6.726;2023-07-08T06:21:01;20.80;99.90
59007;DHT22;44792;52.760;6.726;2023-07-08T06:23:28;20.90;99.90
59007;DHT22;44792;52.760;6.726;2023-07-08T06:25:54;20.70;99.90
59007;DHT22;44792;52.760;6.726;2023-07-08T06:28:20;20.80;99.90
59007;DHT22;44792;52.760;6.726;2023-07-08T06:30:46;20.70;99.90
59007;DHT22;44792;52.760;6.726;2023-07-08T06:33:13;20.70;99.90
59007;DHT22;44792;52.760;6.726;2023-07-08T06:35:39;20.70;99.90
59007;DHT22;44792;52.760;6.726;2023-07-08T06:38:05;20.70;99.90
59007;DHT22;44792;52.760;6.726;2023-07-08T06:40:32;20.80;99.90
59007;DHT22;44792;52.760;6.726;2023-07-08T06:42:58;20.80;99.90
59007;DHT22;44792;52.760;6.726;2023-07-08T06:45:24;21.00;99.90
59007;DHT22;44792;52.760;6.726;2023-07-08T06:47:49;21.00;99.90
59007;DHT22;44792;52.760;6.726;2023-07-08T06:50:15;21.00;99.90
59007;DHT22;44792;52.760;6.726;2023-07-08T06:52:41;21.10;99.90
59007;DHT22;44792;52.760;6.726;2023-07-08T06:55:09;21.20;99.90
59007;DHT22;44792;52.760;6.726;2023-07-08T06:57:35;21.20;99.90
59007;DHT22;44792;52.760;6.726;2023-07-08T07:00:01;21.30;99.90
59007;DHT22;44792;52.760;6.726;2023-07-08T07:02:28;21.40;99.90
59007;DHT22;44792;52.760;6.726;2023-07-08T07:04:54;21.60;99.90
59007;DHT22;44792;52.760;6.726;2023-07-08T07:07:21;21.60;99.90
59007;DHT22;44792;52.760;6.726;2023-07-08T07:09:46;21.60;99.90
59007;DHT22;44792;52.760;6.726;2023-07-08T07:12:12;21.70;99.90
59007;DHT22;44792;52.760;6.726;2023-07-08T07:14:38;21.80;99.90
59007;DHT22;44792;52.760;6.726;2023-07-08T07:17:03;21.90;99.90
59007;DHT22;44792;52.760;6.726;2023-07-08T07:19:29;21.90;99.90
59007;DHT22;44792;52.760;6.726;2023-07-08T07:21:55;22.10;99.90
59007;DHT22;44792;52.760;6.726;2023-07-08T07:24:21;22.20;99.90
59007;DHT22;44792;52.760;6.726;2023-07-08T07:26:46;22.10;99.90
59007;DHT22;44792;52.760;6.726;2023-07-08T07:29:15;22.20;99.90
59007;DHT22;44792;52.760;6.726;2023-07-08T07:31:41;22.20;99.90
59007;DHT22;44792;52.760;6.726;2023-07-08T07:34:07;22.30;99.90
59007;DHT22;44792;52.760;6.726;2023-07-08T07:36:34;22.40;99.90
59007;DHT22;44792;52.760;6.726;2023-07-08T07:39:00;22.60;99.90
59007;DHT22;44792;52.760;6.726;2023-07-08T07:41:25;22.60;99.90
59007;DHT22;44792;52.760;6.726;2023-07-08T07:43:51;22.90;99.90
59007;DHT22;44792;52.760;6.726;2023-07-08T07:46:17;22.90;99.90
59007;DHT22;44792;52.760;6.726;2023-07-08T07:48:43;23.00;99.90
59007;DHT22;44792;52.760;6.726;2023-07-08T07:51:09;23.00;99.90
59007;DHT22;44792;52.760;6.726;2023-07-08T07:53:37;23.20;99.90
59007;DHT22;44792;52.760;6.726;2023-07-08T07:56:03;23.20;99.90
59007;DHT22;44792;52.760;6.726;2023-07-08T07:58:30;23.20;99.90
59007;DHT22;44792;52.760;6.726;2023-07-08T08:00:56;23.30;99.90
59007;DHT22;44792;52.760;6.726;2023-07-08T08:03:22;23.40;99.90
59007;DHT22;44792;52.760;6.726;2023-07-08T08:05:48;23.60;99.90
59007;DHT22;44792;52.760;6.726;2023-07-08T08:08:14;23.60;99.90
59007;DHT22;44792;52.760;6.726;2023-07-08T08:10:42;23.70;99.90
59007;DHT22;44792;52.760;6.726;2023-07-08T08:13:08;23.80;99.90
59007;DHT22;44792;52.760;6.726;2023-07-08T08:15:34;23.80;99.90
59007;DHT22;44792;52.760;6.726;2023-07-08T08:18:00;23.80;99.90
59007;DHT22;44792;52.760;6.726;2023-07-08T08:20:26;23.80;99.90
59007;DHT22;44792;52.760;6.726;2023-07-08T08:22:51;24.00;99.90
59007;DHT22;44792;52.760;6.726;2023-07-08T08:25:19;23.90;99.90
59007;DHT22;44792;52.760;6.726;2023-07-08T08:27:45;24.10;99.90
59007;DHT22;44792;52.760;6.726;2023-07-08T08:30:11;24.00;99.90
59007;DHT22;44792;52.760;6.726;2023-07-08T08:32:37;24.10;99.90
59007;DHT22;44792;52.760;6.726;2023-07-08T08:35:04;24.10;99.90
59007;DHT22;44792;52.760;6.726;2023-07-08T08:37:30;24.10;99.90
59007;DHT22;44792;52.760;6.726;2023-07-08T08:39:55;24.20;99.90
59007;DHT22;44792;52.760;6.726;2023-07-08T08:44:53;24.30;99.90
59007;DHT22;44792;52.760;6.726;2023-07-08T08:50:18;24.50;99.90
59007;DHT22;44792;52.760;6.726;2023-07-08T08:52:46;24.50;99.90
59007;DHT22;44792;52.760;6.726;2023-07-08T08:55:13;24.60;99.90
59007;DHT22;44792;52.760;6.726;2023-07-08T09:00:51;25.10;99.90
59007;DHT22;44792;52.760;6.726;2023-07-08T09:06:24;25.20;99.90
59007;DHT22;44792;52.760;6.726;2023-07-08T09:08:51;25.30;99.90
59007;DHT22;44792;52.760;6.726;2023-07-08T09:11:40;25.20;99.90
59007;DHT22;44792;52.760;6.726;2023-07-08T09:14:29;25.30;99.90
59007;DHT22;44792;52.760;6.726;2023-07-08T09:17:24;25.40;99.90
59007;DHT22;44792;52.760;6.726;2023-07-08T09:25:33;25.70;99.90
59007;DHT22;44792;52.760;6.726;2023-07-08T09:28:00;25.80;99.90
59007;DHT22;44792;52.760;6.726;2023-07-08T09:30:26;25.90;99.90
59007;DHT22;44792;52.760;6.726;2023-07-08T09:32:54;25.90;99.90
59007;DHT22;44792;52.760;6.726;2023-07-08T09:35:28;25.90;99.90
59007;DHT22;44792;52.760;6.726;2023-07-08T09:37:55;26.10;99.90
59007;DHT22;44792;52.760;6.726;2023-07-08T09:40:31;26.30;99.90
59007;DHT22;44792;52.760;6.726;2023-07-08T09:43:26;26.20;99.90
59007;DHT22;44792;52.760;6.726;2023-07-08T09:45:58;26.40;99.90
59007;DHT22;44792;52.760;6.726;2023-07-08T09:48:27;26.40;99.60
59007;DHT22;44792;52.760;6.726;2023-07-08T09:50:54;26.30;99.90
59007;DHT22;44792;52.760;6.726;2023-07-08T09:53:21;26.50;99.90
59007;DHT22;44792;52.760;6.726;2023-07-08T09:55:47;26.60;99.90
59007;DHT22;44792;52.760;6.726;2023-07-08T09:58:25;26.60;99.80
59007;DHT22;44792;52.760;6.726;2023-07-08T10:00:59;26.80;99.40
59007;DHT22;44792;52.760;6.726;2023-07-08T10:03:33;26.90;99.40
59007;DHT22;44792;52.760;6.726;2023-07-08T10:06:04;26.90;99.10
59007;DHT22;44792;52.760;6.726;2023-07-08T10:08:41;27.00;99.70
59007;DHT22;44792;52.760;6.726;2023-07-08T10:11:31;27.10;99.50
59007;DHT22;44792;52.760;6.726;2023-07-08T10:14:04;27.10;99.30
59007;DHT22;44792;52.760;6.726;2023-07-08T10:16:32;27.10;99.00
59007;DHT22;44792;52.760;6.726;2023-07-08T10:18:59;27.10;99.80
59007;DHT22;44792;52.760;6.726;2023-07-08T10:24:34;27.30;98.60
59007;DHT22;44792;52.760;6.726;2023-07-08T10:30:21;27.40;98.50
59007;DHT22;44792;52.760;6.726;2023-07-08T10:35:46;27.60;99.20
59007;DHT22;44792;52.760;6.726;2023-07-08T10:44:09;27.80;97.70
59007;DHT22;44792;52.760;6.726;2023-07-08T11:01:14;28.30;97.10
59007;DHT22;44792;52.760;6.726;2023-07-08T11:06:24;28.30;98.30
59007;DHT22;44792;52.760;6.726;2023-07-08T11:08:56;28.30;96.10
59007;DHT22;44792;52.760;6.726;2023-07-08T11:14:11;28.50;96.10
59007;DHT22;44792;52.760;6.726;2023-07-08T11:17:09;28.50;96.20
59007;DHT22;44792;52.760;6.726;2023-07-08T11:19:58;28.50;95.70
59007;DHT22;44792;52.760;6.726;2023-07-08T11:22:24;28.60;96.50
59007;DHT22;44792;52.760;6.726;2023-07-08T11:24:54;28.60;96.80
59007;DHT22;44792;52.760;6.726;2023-07-08T11:27:31;28.80;97.10
59007;DHT22;44792;52.760;6.726;2023-07-08T11:30:17;28.80;96.70
59007;DHT22;44792;52.760;6.726;2023-07-08T11:32:45;29.00;95.90
59007;DHT22;44792;52.760;6.726;2023-07-08T11:37:45;28.90;95.90
59007;DHT22;44792;52.760;6.726;2023-07-08T11:40:22;29.10;96.50
59007;DHT22;44792;52.760;6.726;2023-07-08T11:42:54;29.10;96.70
59007;DHT22;44792;52.760;6.726;2023-07-08T11:45:27;29.00;95.00
59007;DHT22;44792;52.760;6.726;2023-07-08T11:48:09;29.10;95.40
59007;DHT22;44792;52.760;6.726;2023-07-08T11:50:37;29.20;96.10
59007;DHT22;44792;52.760;6.726;2023-07-08T11:53:11;29.20;95.00
59007;DHT22;44792;52.760;6.726;2023-07-08T11:55:47;29.20;95.60
59007;DHT22;44792;52.760;6.726;2023-07-08T11:58:25;29.10;95.80
59007;DHT22;44792;52.760;6.726;2023-07-08T12:00:59;29.10;95.50
59007;DHT22;44792;52.760;6.726;2023-07-08T12:06:00;29.20;95.90
59007;DHT22;44792;52.760;6.726;2023-07-08T12:08:37;29.30;96.30
59007;DHT22;44792;52.760;6.726;2023-07-08T12:11:10;29.30;96.00
59007;DHT22;44792;52.760;6.726;2023-07-08T12:13:37;29.40;95.70
59007;DHT22;44792;52.760;6.726;2023-07-08T12:16:02;29.50;95.90
59007;DHT22;44792;52.760;6.726;2023-07-08T12:18:33;29.50;95.60
59007;DHT22;44792;52.760;6.726;2023-07-08T12:21:00;29.60;95.00
59007;DHT22;44792;52.760;6.726;2023-07-08T12:23:27;29.60;94.40
59007;DHT22;44792;52.760;6.726;2023-07-08T12:25:55;29.60;95.10
59007;DHT22;44792;52.760;6.726;2023-07-08T12:28:21;29.60;95.60
59007;DHT22;44792;52.760;6.726;2023-07-08T12:30:48;29.60;95.50
59007;DHT22;44792;52.760;6.726;2023-07-08T12:33:29;29.70;95.80
59007;DHT22;44792;52.760;6.726;2023-07-08T12:35:56;29.80;94.70
59007;DHT22;44792;52.760;6.726;2023-07-08T12:38:37;29.90;95.00
59007;DHT22;44792;52.760;6.726;2023-07-08T12:41:14;29.80;94.20
59007;DHT22;44792;52.760;6.726;2023-07-08T12:43:40;29.90;95.70
59007;DHT22;44792;52.760;6.726;2023-07-08T12:46:09;30.00;95.20
59007;DHT22;44792;52.760;6.726;2023-07-08T12:48:35;30.10;95.30
59007;DHT22;44792;52.760;6.726;2023-07-08T12:51:03;30.10;94.20
59007;DHT22;44792;52.760;6.726;2023-07-08T12:53:29;30.10;94.10
59007;DHT22;44792;52.760;6.726;2023-07-08T12:55:57;30.20;94.20
59007;DHT22;44792;52.760;6.726;2023-07-08T12:58:27;30.20;93.20
59007;DHT22;44792;52.760;6.726;2023-07-08T13:00:58;30.30;94.20
59007;DHT22;44792;52.760;6.726;2023-07-08T13:03:28;30.30;94.00
59007;DHT22;44792;52.760;6.726;2023-07-08T13:05:56;30.30;93.00
59007;DHT22;44792;52.760;6.726;2023-07-08T13:08:24;30.40;93.50
59007;DHT22;44792;52.760;6.726;2023-07-08T13:10:53;30.40;92.60
59007;DHT22;44792;52.760;6.726;2023-07-08T13:13:22;30.40;93.50
59007;DHT22;44792;52.760;6.726;2023-07-08T13:15:48;30.50;93.40
59007;DHT22;44792;52.760;6.726;2023-07-08T13:18:41;30.60;92.60
59007;DHT22;44792;52.760;6.726;2023-07-08T13:21:11;30.70;93.10
59007;DHT22;44792;52.760;6.726;2023-07-08T13:23:38;30.80;92.70
59007;DHT22;44792;52.760;6.726;2023-07-08T13:26:19;30.70;92.70
59007;DHT22;44792;52.760;6.726;2023-07-08T13:28:46;30.80;91.50
59007;DHT22;44792;52.760;6.726;2023-07-08T13:31:18;30.80;91.70
59007;DHT22;44792;52.760;6.726;2023-07-08T13:33:49;30.90;92.00
59007;DHT22;44792;52.760;6.726;2023-07-08T13:36:18;31.00;91.10
59007;DHT22;44792;52.760;6.726;2023-07-08T13:38:44;31.10;92.30
59007;DHT22;44792;52.760;6.726;2023-07-08T13:41:10;31.10;92.00
59007;DHT22;44792;52.760;6.726;2023-07-08T13:43:40;31.10;92.30
59007;DHT22;44792;52.760;6.726;2023-07-08T13:46:34;31.10;91.40
59007;DHT22;44792;52.760;6.726;2023-07-08T13:49:38;31.10;90.40
59007;DHT22;44792;52.760;6.726;2023-07-08T13:52:17;31.10;91.10
59007;DHT22;44792;52.760;6.726;2023-07-08T13:54:54;31.20;90.90
59007;DHT22;44792;52.760;6.726;2023-07-08T13:57:23;31.30;91.40
59007;DHT22;44792;52.760;6.726;2023-07-08T13:59:49;31.30;91.80
59007;DHT22;44792;52.760;6.726;2023-07-08T14:02:19;31.30;91.30
59007;DHT22;44792;52.760;6.726;2023-07-08T14:04:46;31.30;91.20
59007;DHT22;44792;52.760;6.726;2023-07-08T14:07:16;31.30;91.10
59007;DHT22;44792;52.760;6.726;2023-07-08T14:09:43;31.40;91.50
59007;DHT22;44792;52.760;6.726;2023-07-08T14:12:09;31.40;91.60
59007;DHT22;44792;52.760;6.726;2023-07-08T14:14:35;31.40;91.60
59007;DHT22;44792;52.760;6.726;2023-07-08T14:17:01;31.40;91.50
59007;DHT22;44792;52.760;6.726;2023-07-08T14:19:29;31.50;91.60
59007;DHT22;44792;52.760;6.726;2023-07-08T14:21:57;31.50;91.20
59007;DHT22;44792;52.760;6.726;2023-07-08T14:24:23;31.50;91.10
59007;DHT22;44792;52.760;6.726;2023-07-08T14:26:49;31.50;91.50
59007;DHT22;44792;52.760;6.726;2023-07-08T14:29:15;31.60;91.00
59007;DHT22;44792;52.760;6.726;2023-07-08T14:31:41;31.50;91.20
59007;DHT22;44792;52.760;6.726;2023-07-08T14:34:09;31.60;90.60
59007;DHT22;44792;52.760;6.726;2023-07-08T14:36:36;31.60;89.60
59007;DHT22;44792;52.760;6.726;2023-07-08T14:39:11;31.50;90.40
59007;DHT22;44792;52.760;6.726;2023-07-08T14:41:38;31.60;88.10
59007;DHT22;44792;52.760;6.726;2023-07-08T14:46:42;31.50;89.50
59007;DHT22;44792;52.760;6.726;2023-07-08T14:49:15;31.60;89.80
59007;DHT22;44792;52.760;6.726;2023-07-08T14:51:40;31.50;88.50
59007;DHT22;44792;52.760;6.726;2023-07-08T14:54:06;31.60;90.00
59007;DHT22;44792;52.760;6.726;2023-07-08T14:56:32;31.60;88.80
59007;DHT22;44792;52.760;6.726;2023-07-08T14:58:58;31.70;88.20
59007;DHT22;44792;52.760;6.726;2023-07-08T15:01:25;31.70;88.90
59007;DHT22;44792;52.760;6.726;2023-07-08T15:03:55;31.60;89.10
59007;DHT22;44792;52.760;6.726;2023-07-08T15:06:21;31.60;87.40
59007;DHT22;44792;52.760;6.726;2023-07-08T15:08:47;31.70;87.90
59007;DHT22;44792;52.760;6.726;2023-07-08T15:11:13;31.60;87.50
59007;DHT22;44792;52.760;6.726;2023-07-08T15:13:40;31.60;87.20
59007;DHT22;44792;52.760;6.726;2023-07-08T15:16:12;31.70;88.00
59007;DHT22;44792;52.760;6.726;2023-07-08T15:18:39;31.70;87.80
59007;DHT22;44792;52.760;6.726;2023-07-08T15:21:10;31.60;87.90
59007;DHT22;44792;52.760;6.726;2023-07-08T15:23:36;31.70;87.30
59007;DHT22;44792;52.760;6.726;2023-07-08T15:26:02;31.70;87.60
59007;DHT22;44792;52.760;6.726;2023-07-08T15:31:10;31.60;84.80
59007;DHT22;44792;52.760;6.726;2023-07-08T15:33:37;31.50;82.90
59007;DHT22;44792;52.760;6.726;2023-07-08T15:36:02;31.60;85.80
59007;DHT22;44792;52.760;6.726;2023-07-08T15:38:28;31.60;85.80
59007;DHT22;44792;52.760;6.726;2023-07-08T15:40:54;31.60;85.90
59007;DHT22;44792;52.760;6.726;2023-07-08T15:43:19;31.60;86.80
59007;DHT22;44792;52.760;6.726;2023-07-08T15:45:45;31.60;86.50
59007;DHT22;44792;52.760;6.726;2023-07-08T15:48:15;31.50;85.50
59007;DHT22;44792;52.760;6.726;2023-07-08T15:50:42;31.60;84.90
59007;DHT22;44792;52.760;6.726;2023-07-08T15:53:08;31.50;85.20
59007;DHT22;44792;52.760;6.726;2023-07-08T15:55:38;31.60;85.40
59007;DHT22;44792;52.760;6.726;2023-07-08T16:00:51;31.50;86.00
59007;DHT22;44792;52.760;6.726;2023-07-08T16:03:28;31.50;86.90
59007;DHT22;44792;52.760;6.726;2023-07-08T16:05:55;31.50;86.80
59007;DHT22;44792;52.760;6.726;2023-07-08T16:08:22;31.40;86.60
59007;DHT22;44792;52.760;6.726;2023-07-08T16:10:52;31.40;86.80
59007;DHT22;44792;52.760;6.726;2023-07-08T16:13:28;31.40;84.80
59007;DHT22;44792;52.760;6.726;2023-07-08T16:15:55;31.40;86.10
59007;DHT22;44792;52.760;6.726;2023-07-08T16:18:21;31.40;86.70
59007;DHT22;44792;52.760;6.726;2023-07-08T16:20:50;31.40;86.90
59007;DHT22;44792;52.760;6.726;2023-07-08T16:23:18;31.40;87.30
59007;DHT22;44792;52.760;6.726;2023-07-08T16:25:48;31.40;87.50
59007;DHT22;44792;52.760;6.726;2023-07-08T16:28:40;31.40;86.10
59007;DHT22;44792;52.760;6.726;2023-07-08T16:31:21;31.40;87.30
59007;DHT22;44792;52.760;6.726;2023-07-08T16:33:48;31.40;85.40
59007;DHT22;44792;52.760;6.726;2023-07-08T16:36:19;31.30;85.50
59007;DHT22;44792;52.760;6.726;2023-07-08T16:38:46;31.30;87.60
59007;DHT22;44792;52.760;6.726;2023-07-08T16:41:26;31.30;87.00
59007;DHT22;44792;52.760;6.726;2023-07-08T16:43:55;31.30;86.20
59007;DHT22;44792;52.760;6.726;2023-07-08T16:46:22;31.30;86.50
59007;DHT22;44792;52.760;6.726;2023-07-08T16:48:48;31.30;86.60
59007;DHT22;44792;52.760;6.726;2023-07-08T16:53:44;31.20;87.00
59007;DHT22;44792;52.760;6.726;2023-07-08T16:56:11;31.20;88.10